»·PEaware :: N585MJ KSNA-KVNY

N585MJ :: KSNA-KVNY

FLIGHT INFORMATION

Flight Status: Arrived
Operator: Privately registered:
United States
More flights under this callsign
Pilot: Michael C. (29659)
Aircraft: BEECH AIRCRAFT BONANZA
(BE35)
More flights by this aircraft type
Origin: KSNA John Wayne-Orange Co
United States
Destination: KVNY Van Nuys
United States
More flights between these airports :: More routes between these airports
Route: +SLI V23 POPPR SMO125R SMO SMO317R CANOG
File this flight plan on PilotEdge
Remarks:
Altitude:
(Current/Filed)
4,000ft
Speed:
(Current/Filed)
160kts
Departed: 28-Jul-20 07:55 PM
Arrived: 28-Jul-20 08:35 PM
Distance/Time
Traveled:
44nm/0:40
Distance/Time
To Go:
Arrived

Flight Plot

Page will automatically refresh every two minutes.


Map Options




Map Legend


Flown Route
Filed Route
Departure Airport
Arrival Airport
Navaid (VOR, NDB)
Fix

Horizontal Profiles

Position Reports

Time Latitude Longitude Heading Altitude Ground
Speed
28-Jul-20 19:40 33.672350 -117.866920 210 59ft 0kts
28-Jul-20 19:41 33.672350 -117.866920 210 59ft 0kts
28-Jul-20 19:42 33.672350 -117.866920 210 59ft 0kts
28-Jul-20 19:43 33.672350 -117.866920 210 59ft 0kts
28-Jul-20 19:44 33.672350 -117.866920 210 59ft 0kts
28-Jul-20 19:45 33.672350 -117.866920 210 59ft 0kts
28-Jul-20 19:46 33.672350 -117.866920 210 59ft 0kts
28-Jul-20 19:47 33.672350 -117.866920 210 59ft 0kts
28-Jul-20 19:48 33.672350 -117.866920 210 59ft 0kts
28-Jul-20 19:49 33.672285 -117.866980 231 59ft 0kts
28-Jul-20 19:50 33.673222 -117.867181 23 59ft 12kts
28-Jul-20 19:51 33.676422 -117.865602 27 59ft 19kts
28-Jul-20 19:52 33.679891 -117.863580 321 59ft 0kts
28-Jul-20 19:53 33.680014 -117.863768 301 59ft 7kts
28-Jul-20 19:54 33.668865 -117.871639 218 227ft 90kts
28-Jul-20 19:55 33.654248 -117.889892 227 1044ft 73kts
28-Jul-20 19:56 33.641494 -117.909501 228 1734ft 81kts
28-Jul-20 19:57 33.641287 -117.936205 302 2370ft 106kts
28-Jul-20 19:58 33.658706 -117.964647 295 3206ft 97kts
28-Jul-20 19:59 33.672585 -117.989181 296 3916ft 100kts
28-Jul-20 20:00 33.692507 -118.025505 299 3909ft 149kts
28-Jul-20 20:01 33.717447 -118.068733 300 3907ft 162kts
28-Jul-20 20:03 33.742929 -118.114401 297 3903ft 165kts
28-Jul-20 20:04 33.768881 -118.159996 297 3905ft 165kts
28-Jul-20 20:05 33.794408 -118.206074 300 3900ft 165kts
28-Jul-20 20:06 33.820726 -118.251615 299 3900ft 165kts
28-Jul-20 20:07 33.848998 -118.295510 315 3895ft 167kts
28-Jul-20 20:08 33.884878 -118.331678 315 3901ft 167kts
28-Jul-20 20:09 33.921153 -118.368222 315 3901ft 167kts
28-Jul-20 20:10 33.957009 -118.404798 314 3899ft 167kts
28-Jul-20 20:11 33.992702 -118.440835 315 3900ft 167kts
28-Jul-20 20:12 34.031458 -118.472271 329 3898ft 168kts
28-Jul-20 20:13 34.071669 -118.496888 328 4254ft 148kts
28-Jul-20 20:14 34.105416 -118.519136 325 4881ft 131kts
28-Jul-20 20:15 34.140015 -118.543302 334 4891ft 153kts
28-Jul-20 20:16 34.179563 -118.557071 339 4903ft 150kts
28-Jul-20 20:17 34.220214 -118.573275 335 4898ft 154kts
28-Jul-20 20:17 34.256006 -118.588392 336 4898ft 158kts
28-Jul-20 20:19 34.305313 -118.608493 338 4899ft 161kts
28-Jul-20 20:20 34.348400 -118.624091 339 4902ft 162kts
28-Jul-20 20:20 34.384636 -118.636050 341 4906ft 162kts
28-Jul-20 20:22 34.434709 -118.653476 341 4906ft 163kts
28-Jul-20 20:23 34.477867 -118.654989 50 4891ft 167kts
28-Jul-20 20:23 34.481712 -118.611835 91 4906ft 149kts
28-Jul-20 20:25 34.478487 -118.552212 120 4898ft 156kts
28-Jul-20 20:25 34.452669 -118.523125 141 4907ft 148kts
28-Jul-20 20:26 34.417264 -118.506751 183 4907ft 139kts
28-Jul-20 20:28 34.372661 -118.505237 176 4280ft 134kts
28-Jul-20 20:28 34.342450 -118.502485 177 3703ft 116kts
28-Jul-20 20:29 34.318155 -118.500481 177 3461ft 98kts
28-Jul-20 20:30 34.289406 -118.497773 177 2742ft 104kts
28-Jul-20 20:31 34.260737 -118.495091 177 2012ft 102kts
28-Jul-20 20:32 34.235137 -118.492641 177 1363ft 83kts
28-Jul-20 20:33 34.214735 -118.490784 177 848ft 74kts
28-Jul-20 20:34 34.206579 -118.490862 262 803ft 8kts

Navigation Log

Ident Type
Flight plan parsing failed, navigation log unavailable